AFR501 SPJC-LFPG
Flight info
| Callsign | AFR501 |
|---|---|
| Flight time | N/A |
| Altitude | 31000 |
| Route | AMVEX UM414 ILMUX/N0510F320 UM414 OPRUS/N0506F330 DCT EDRIN/N0510F320 UM414 PBL/N0506F330 DCT KIKER DCT OBIKE/M084F330 M576 RKDIA DCT 26N055W/M084F350 31N050W 38N045W 42N040W 47N030W 4930N02000W DCT SOMAX DCT ATSUR DCT GAPLI/N0482F350 DCT ANNET UM25 INGOR/N0491F280 UM25 LUKIP |
| Aircraft | B77W/H-SDE1E2E3FGHIJ2J3J4J5M1RWXY/LB1D1 |
Departure
| Time | 2026-05-04 21:26 |
|---|---|
| Airport | Jorge Chávez International Airport (SPJC) |
Arrival
| Time | N/A |
|---|---|
| Airport | Charles de Gaulle International Airport (LFPG) |
| Time | Latitude | Longitude | Altitude | Speed | Heading |
|---|---|---|---|---|---|
| 2026-05-04 21:24 | -12.03589 | -77.10604 | 127 ft | 0 kts | 245° |
| 2026-05-04 21:24 | -12.03590 | -77.10605 | 127 ft | 1 kts | 245° |
| 2026-05-04 21:24 | -12.03598 | -77.10626 | 124 ft | 6 kts | 253° |
| 2026-05-04 21:25 | -12.03599 | -77.10691 | 125 ft | 13 kts | 274° |
| 2026-05-04 21:25 | -12.03518 | -77.10777 | 120 ft | 22 kts | 333° |
| 2026-05-04 21:25 | -12.03276 | -77.10896 | 113 ft | 73 kts | 334° |
| 2026-05-04 21:25 | -12.02551 | -77.11254 | 98 ft | 156 kts | 334° |
| 2026-05-04 21:26 | -12.01351 | -77.11855 | 101 ft | 223 kts | 332° |
| 2026-05-04 21:26 | -11.99940 | -77.12602 | 1000 ft | 227 kts | 328° |
| 2026-05-04 21:26 | -11.98842 | -77.13733 | 2215 ft | 234 kts | 296° |
| 2026-05-04 21:26 | -11.98495 | -77.15371 | 2663 ft | 245 kts | 266° |
| 2026-05-04 21:27 | -11.98683 | -77.17128 | 3112 ft | 254 kts | 256° |
| 2026-05-04 21:27 | -11.99253 | -77.18839 | 3679 ft | 258 kts | 252° |
| 2026-05-04 21:27 | -11.99830 | -77.20614 | 4202 ft | 267 kts | 253° |
| 2026-05-04 21:27 | -12.00411 | -77.22431 | 4856 ft | 271 kts | 253° |
| 2026-05-04 21:28 | -12.00883 | -77.24293 | 5453 ft | 271 kts | 270° |
| 2026-05-04 21:28 | -12.00549 | -77.26174 | 5913 ft | 271 kts | 291° |
| 2026-05-04 21:28 | -12.00036 | -77.28048 | 6381 ft | 279 kts | 281° |
| 2026-05-04 21:28 | -11.99737 | -77.30015 | 7033 ft | 280 kts | 281° |
| 2026-05-04 21:29 | -11.99384 | -77.31972 | 7664 ft | 281 kts | 282° |
| 2026-05-04 21:29 | -11.98982 | -77.33930 | 8264 ft | 283 kts | 283° |
| 2026-05-04 21:29 | -11.98570 | -77.35913 | 8878 ft | 286 kts | 282° |
| 2026-05-04 21:29 | -11.98173 | -77.37911 | 9502 ft | 289 kts | 281° |
| 2026-05-04 21:30 | -11.97783 | -77.39935 | 10107 ft | 291 kts | 282° |
| 2026-05-04 21:30 | -11.97326 | -77.41985 | 10467 ft | 301 kts | 284° |
| 2026-05-04 21:30 | -11.96854 | -77.44143 | 10602 ft | 321 kts | 282° |
| 2026-05-04 21:30 | -11.96407 | -77.46413 | 10764 ft | 340 kts | 282° |
| 2026-05-04 21:31 | -11.96665 | -77.51362 | 11042 ft | 373 kts | 245° |
| 2026-05-04 21:31 | -11.98180 | -77.53561 | 11401 ft | 384 kts | 224° |
| 2026-05-04 21:31 | -12.00365 | -77.55140 | 11907 ft | 391 kts | 205° |
| 2026-05-04 21:32 | -12.02988 | -77.55922 | 12489 ft | 395 kts | 186° |
| 2026-05-04 21:32 | -12.05722 | -77.55771 | 13104 ft | 398 kts | 166° |
| 2026-05-04 21:32 | -12.08261 | -77.54666 | 13697 ft | 400 kts | 146° |
| 2026-05-04 21:32 | -12.10285 | -77.52723 | 14214 ft | 401 kts | 125° |
| 2026-05-04 21:33 | -12.11494 | -77.50179 | 14731 ft | 402 kts | 103° |
| 2026-05-04 21:33 | -12.11702 | -77.47336 | 15234 ft | 403 kts | 83° |
| 2026-05-04 21:33 | -12.11102 | -77.44540 | 15803 ft | 404 kts | 73° |
| 2026-05-04 21:33 | -12.10271 | -77.41803 | 16397 ft | 404 kts | 72° |
| 2026-05-04 21:34 | -12.09405 | -77.39058 | 16989 ft | 405 kts | 72° |
| 2026-05-04 21:34 | -12.08556 | -77.36313 | 17549 ft | 406 kts | 72° |
| 2026-05-04 21:34 | -12.07748 | -77.33562 | 18049 ft | 408 kts | 73° |
| 2026-05-04 21:34 | -12.06945 | -77.30778 | 18522 ft | 411 kts | 73° |
| 2026-05-04 21:35 | -12.06143 | -77.27963 | 18927 ft | 414 kts | 73° |
| 2026-05-04 21:35 | -12.05538 | -77.25083 | 19258 ft | 419 kts | 82° |
| 2026-05-04 21:35 | -12.05236 | -77.22107 | 19633 ft | 423 kts | 84° |
| 2026-05-04 21:35 | -12.04958 | -77.19087 | 20014 ft | 427 kts | 83° |
| 2026-05-04 21:36 | -12.04531 | -77.16102 | 20337 ft | 427 kts | 73° |
| 2026-05-04 21:36 | -12.03249 | -77.13338 | 20558 ft | 434 kts | 54° |
| 2026-05-04 21:36 | -12.01167 | -77.11105 | 20940 ft | 437 kts | 39° |
| 2026-05-04 21:36 | -11.98619 | -77.09398 | 21364 ft | 441 kts | 26° |
| 2026-05-04 21:37 | -11.95708 | -77.08387 | 21699 ft | 443 kts | 14° |
| 2026-05-04 21:37 | -11.92694 | -77.07676 | 22022 ft | 449 kts | 13° |
| 2026-05-04 21:37 | -11.89618 | -77.06976 | 22371 ft | 453 kts | 13° |
| 2026-05-04 21:37 | -11.86531 | -77.06272 | 22801 ft | 455 kts | 13° |
| 2026-05-04 21:38 | -11.83479 | -77.05561 | 23196 ft | 457 kts | 13° |
| 2026-05-04 21:38 | -11.80341 | -77.04815 | 23547 ft | 461 kts | 14° |
| 2026-05-04 21:38 | -11.77205 | -77.04042 | 23853 ft | 463 kts | 14° |
| 2026-05-04 21:38 | -11.74063 | -77.03299 | 24185 ft | 465 kts | 14° |
| 2026-05-04 21:39 | -11.70918 | -77.02520 | 24571 ft | 465 kts | 14° |
| 2026-05-04 21:39 | -11.68833 | -77.02003 | 24854 ft | 464 kts | 14° |
| 2026-05-04 21:39 | -11.64657 | -77.00963 | 25225 ft | 468 kts | 14° |
| 2026-05-04 21:39 | -11.61498 | -77.00179 | 25511 ft | 470 kts | 15° |
| 2026-05-04 21:40 | -11.58305 | -76.99380 | 25868 ft | 471 kts | 14° |
| 2026-05-04 21:40 | -11.56143 | -76.98858 | 26096 ft | 472 kts | 14° |
| 2026-05-04 21:40 | -11.52941 | -76.98089 | 26403 ft | 474 kts | 13° |
| 2026-05-04 21:40 | -11.49767 | -76.97322 | 26664 ft | 476 kts | 14° |
| 2026-05-04 21:41 | -11.46540 | -76.96536 | 26946 ft | 478 kts | 14° |
| 2026-05-04 21:41 | -11.43320 | -76.95748 | 27263 ft | 479 kts | 14° |
| 2026-05-04 21:41 | -11.40091 | -76.94956 | 27563 ft | 480 kts | 14° |
| 2026-05-04 21:41 | -11.36827 | -76.94159 | 27840 ft | 482 kts | 13° |
| 2026-05-04 21:42 | -11.33559 | -76.93378 | 28151 ft | 484 kts | 14° |
| 2026-05-04 21:42 | -11.30285 | -76.92574 | 28415 ft | 485 kts | 14° |
| 2026-05-04 21:42 | -11.27001 | -76.91760 | 28683 ft | 487 kts | 14° |
| 2026-05-04 21:42 | -11.23708 | -76.90946 | 28935 ft | 488 kts | 14° |
| 2026-05-04 21:43 | -11.20406 | -76.90133 | 29175 ft | 489 kts | 14° |
| 2026-05-04 21:43 | -11.17090 | -76.89320 | 29413 ft | 490 kts | 14° |
| 2026-05-04 21:43 | -11.13787 | -76.88512 | 29615 ft | 491 kts | 14° |
| 2026-05-04 21:43 | -11.10449 | -76.87697 | 29808 ft | 492 kts | 14° |
| 2026-05-04 21:44 | -11.07112 | -76.86882 | 30016 ft | 494 kts | 14° |
| 2026-05-04 21:44 | -11.03772 | -76.86067 | 30358 ft | 490 kts | 13° |
| 2026-05-04 21:44 | -11.00476 | -76.85253 | 30719 ft | 487 kts | 14° |
| 2026-05-04 21:44 | -10.97190 | -76.84457 | 30956 ft | 486 kts | 14° |
| 2026-05-04 21:45 | -10.93894 | -76.83654 | 31085 ft | 488 kts | 14° |
| 2026-05-04 21:45 | -10.87326 | -76.82049 | 31179 ft | 488 kts | 14° |
| 2026-05-04 21:46 | -10.80730 | -76.80426 | 31180 ft | 485 kts | 15° |
| 2026-05-04 21:46 | -10.77578 | -76.79250 | 31194 ft | 483 kts | 26° |
| 2026-05-04 21:46 | -10.74612 | -76.77689 | 31221 ft | 483 kts | 28° |
| 2026-05-04 21:47 | -10.68751 | -76.74397 | 31227 ft | 483 kts | 28° |
| 2026-05-04 21:47 | -10.62822 | -76.71074 | 31232 ft | 485 kts | 29° |